Price, North Carolina
Current Conditions -  °F | °C
As of 4:55 PM on Thursday 27 Nov 2014 (Local Time) from KSIF Reporting Station
Broken Clouds Broken Clouds  
Wind Chill: 38°   Ceiling: 6000
Heat Index: 42°   Visibility: 10mi
Dew Point: 27°   Wind: 7mph
Humidity: 55%   Direction: 320°NW
Pressure: 30.16"   Gusts: NA
Location:  36.4831°N, 79.9235°W
Report Text: KSIF 272155Z AUTO 32006KT 10SM BKN060 06/M03 A3016 RMK AO2 P0002 T00561027
Loading
Personal Weather Stations






























Interactive Weather Map New forecast layout! Learn more

10-Day Weather Forecast

Advertisements
Track Severe Weather on mobile